createdAt,value
2022-10-31T00:00:47.499Z,37.58
2022-10-31T00:03:14.004Z,33.58
2022-10-31T00:05:46.026Z,35.80
2022-10-31T00:08:12.425Z,35.65
2022-10-31T00:10:40.914Z,36.38
2022-10-31T00:13:08.140Z,36.25
2022-10-31T00:15:35.903Z,40.83
2022-10-31T00:18:03.057Z,38.05
2022-10-31T00:20:30.051Z,37.33
2022-10-31T00:23:00.615Z,35.25
2022-10-31T00:25:28.219Z,33.67
2022-10-31T00:27:54.648Z,32.58
2022-10-31T00:30:21.258Z,40.45
2022-10-31T00:32:47.689Z,37.42
2022-10-31T00:35:14.080Z,36.00
2022-10-31T00:37:40.474Z,40.63
2022-10-31T00:40:07.591Z,36.42
2022-10-31T00:42:34.012Z,37.10
2022-10-31T00:45:00.414Z,41.28
2022-10-31T00:47:26.863Z,34.05
2022-10-31T00:49:53.267Z,33.35
2022-10-31T00:52:19.741Z,35.97
2022-10-31T00:54:46.140Z,36.22
2022-10-31T00:57:12.562Z,33.63
2022-10-31T00:59:38.990Z,38.53
2022-10-31T01:02:05.523Z,33.45
2022-10-31T01:04:32.016Z,41.53
2022-10-31T01:06:58.440Z,41.20
2022-10-31T01:09:24.920Z,31.15
2022-10-31T01:11:51.354Z,31.10
2022-10-31T01:14:17.796Z,36.63
2022-10-31T01:16:44.231Z,31.48
2022-10-31T01:19:10.607Z,34.92
2022-10-31T01:21:37.093Z,35.17
2022-10-31T01:24:03.735Z,36.22
2022-10-31T01:26:32.426Z,31.33
2022-10-31T01:29:01.674Z,29.50
2022-10-31T01:31:31.528Z,34.05
2022-10-31T01:33:58.644Z,30.92
2022-10-31T01:36:29.741Z,35.85
2022-10-31T01:39:02.199Z,31.48
2022-10-31T01:41:31.436Z,46.13
2022-10-31T01:44:00.611Z,29.77
2022-10-31T01:46:34.543Z,27.38
2022-10-31T01:49:18.209Z,31.70
2022-10-31T01:51:54.402Z,46.22
2022-10-31T01:54:23.892Z,32.63
2022-10-31T01:56:55.079Z,29.48
2022-10-31T01:59:23.009Z,34.28
2022-10-31T02:01:51.555Z,31.52
2022-10-31T02:04:19.795Z,24.60
2022-10-31T02:10:35.622Z,33.45
2022-10-31T02:13:05.247Z,35.30
2022-10-31T02:15:33.643Z,32.67
2022-10-31T02:18:00.622Z,32.20
2022-10-31T02:20:34.578Z,24.10
2022-10-31T02:23:26.066Z,32.53
2022-10-31T02:26:04.496Z,29.15
2022-10-31T02:28:58.780Z,37.15
2022-10-31T02:31:43.524Z,22.95
2022-10-31T02:34:20.293Z,26.50
2022-10-31T02:37:00.377Z,33.70
2022-10-31T02:39:36.073Z,27.42
2022-10-31T02:42:14.244Z,33.67
2022-10-31T02:44:52.736Z,37.85
2022-10-31T02:47:25.284Z,27.02
2022-10-31T02:49:51.648Z,28.70
2022-10-31T02:52:27.663Z,33.78
2022-10-31T02:54:54.409Z,28.63
2022-10-31T02:57:26.461Z,30.35
2022-10-31T03:00:02.313Z,32.63
2022-10-31T03:02:47.436Z,36.05
2022-10-31T03:05:48.021Z,35.03
2022-10-31T03:08:14.424Z,35.15
2022-10-31T03:10:57.910Z,32.17
2022-10-31T03:13:56.569Z,32.92
2022-10-31T03:16:33.762Z,29.05
2022-10-31T03:19:12.235Z,33.83
2022-10-31T03:21:44.947Z,28.67
2022-10-31T03:24:13.730Z,32.13
2022-10-31T03:26:45.713Z,26.02
2022-10-31T03:29:16.335Z,28.60
2022-10-31T03:32:41.382Z,38.00
2022-10-31T03:35:10.412Z,30.63
2022-10-31T03:37:38.664Z,29.23
2022-10-31T03:40:08.909Z,33.95
2022-10-31T03:42:42.405Z,28.30
2022-10-31T03:45:09.099Z,29.80
2022-10-31T03:47:38.621Z,40.53
2022-10-31T03:50:08.429Z,32.38
2022-10-31T03:52:42.445Z,32.08
2022-10-31T03:55:17.492Z,30.92
2022-10-31T03:58:03.660Z,34.20
2022-10-31T04:00:32.849Z,28.95
2022-10-31T04:03:08.440Z,27.92
2022-10-31T04:05:37.070Z,41.25
2022-10-31T04:08:10.005Z,38.78
2022-10-31T04:10:39.741Z,29.52
2022-10-31T04:13:15.095Z,35.88
2022-10-31T04:15:44.409Z,34.42
2022-10-31T04:18:11.033Z,24.30
2022-10-31T04:20:40.315Z,28.30
2022-10-31T04:23:20.357Z,29.92
2022-10-31T04:25:46.843Z,32.60
2022-10-31T04:28:13.338Z,24.98
2022-10-31T04:30:39.981Z,36.08
2022-10-31T04:33:06.540Z,36.08
2022-10-31T04:35:33.018Z,27.77
2022-10-31T04:37:59.479Z,35.17
2022-10-31T04:40:25.938Z,32.20
2022-10-31T04:42:52.379Z,27.80
2022-10-31T04:45:21.211Z,37.42
2022-10-31T04:47:48.089Z,32.58
2022-10-31T04:50:14.918Z,28.60
2022-10-31T04:52:43.507Z,29.10
2022-10-31T04:55:10.709Z,26.88
2022-10-31T04:57:44.625Z,34.75
2022-10-31T05:00:13.690Z,35.80
2022-10-31T05:02:51.488Z,28.70
2022-10-31T05:05:19.493Z,30.58
2022-10-31T05:07:47.540Z,42.85
2022-10-31T05:10:19.875Z,38.17
2022-10-31T05:12:48.854Z,29.92
2022-10-31T05:15:15.683Z,29.45
2022-10-31T05:17:42.268Z,28.60
2022-10-31T05:20:09.199Z,32.58
2022-10-31T05:22:35.620Z,30.20
2022-10-31T05:25:02.016Z,30.88
2022-10-31T05:27:28.465Z,35.10
2022-10-31T05:29:54.923Z,33.83
2022-10-31T05:32:21.324Z,46.55
2022-10-31T05:34:47.721Z,32.30
2022-10-31T05:37:14.132Z,32.72
2022-10-31T05:39:40.560Z,40.72
2022-10-31T05:42:07.085Z,25.73
2022-10-31T05:44:33.600Z,30.48
2022-10-31T05:46:59.986Z,34.70
2022-10-31T05:49:26.417Z,32.72
2022-10-31T05:51:52.852Z,30.20
2022-10-31T05:54:19.271Z,41.22
2022-10-31T05:56:45.770Z,38.42
2022-10-31T05:59:12.232Z,34.90
2022-10-31T06:01:38.817Z,27.00
2022-10-31T06:04:05.476Z,28.35
2022-10-31T06:06:31.857Z,30.77
2022-10-31T06:08:58.257Z,36.42
2022-10-31T06:11:24.793Z,38.67
2022-10-31T06:13:51.285Z,29.23
2022-10-31T06:16:17.658Z,23.60
2022-10-31T06:18:44.120Z,31.17
2022-10-31T06:21:12.493Z,30.17
2022-10-31T06:23:41.342Z,32.70
2022-10-31T06:26:07.823Z,36.00
2022-10-31T06:28:34.243Z,37.25
2022-10-31T06:31:00.710Z,27.42
2022-10-31T06:33:27.263Z,31.50
2022-10-31T06:35:53.677Z,28.50
2022-10-31T06:38:20.071Z,29.92
2022-10-31T06:40:46.512Z,36.28
2022-10-31T06:43:13.017Z,31.52
2022-10-31T06:45:39.545Z,33.80
2022-10-31T06:48:22.238Z,37.22
2022-10-31T06:50:48.833Z,31.67
2022-10-31T06:53:15.616Z,37.90
2022-10-31T06:55:42.996Z,37.58
2022-10-31T06:58:11.348Z,30.70
2022-10-31T07:00:38.248Z,34.88
2022-10-31T07:03:07.054Z,38.05
2022-10-31T07:05:33.860Z,38.13
2022-10-31T07:08:02.795Z,45.35
2022-10-31T07:10:34.396Z,38.67
2022-10-31T07:13:07.351Z,38.35
2022-10-31T07:15:36.541Z,42.92
2022-10-31T07:18:04.904Z,39.08
2022-10-31T07:20:32.263Z,41.97
2022-10-31T07:22:59.444Z,33.47
2022-10-31T07:25:26.017Z,39.78
2022-10-31T07:27:52.580Z,29.88
2022-10-31T07:30:19.786Z,31.80
2022-10-31T07:32:50.814Z,34.17
2022-10-31T07:35:20.079Z,35.33
2022-10-31T07:37:46.638Z,34.33
2022-10-31T07:40:13.489Z,31.05
2022-10-31T07:42:44.564Z,38.08
2022-10-31T07:45:13.317Z,32.35
2022-10-31T07:47:47.135Z,33.05
2022-10-31T07:50:23.108Z,32.22
2022-10-31T07:52:58.530Z,31.38
2022-10-31T07:55:24.956Z,38.72
2022-10-31T07:58:05.598Z,33.58
2022-10-31T08:00:34.192Z,30.50
2022-10-31T08:03:06.388Z,40.22
2022-10-31T08:05:33.555Z,38.03
2022-10-31T08:08:00.896Z,38.97
2022-10-31T08:10:28.460Z,41.67
2022-10-31T08:13:14.483Z,38.05
2022-10-31T08:15:42.694Z,37.70
2022-10-31T08:18:15.975Z,35.58
2022-10-31T08:20:43.578Z,42.20
2022-10-31T08:23:11.735Z,35.88
2022-10-31T08:25:39.307Z,42.22
2022-10-31T08:28:07.503Z,41.97
2022-10-31T08:30:35.905Z,43.67
2022-10-31T08:33:14.130Z,38.88
2022-10-31T08:35:41.079Z,40.28
2022-10-31T08:38:09.380Z,38.85
2022-10-31T08:40:36.634Z,49.10
2022-10-31T08:43:06.051Z,39.03
2022-10-31T08:45:34.330Z,38.40
2022-10-31T08:48:02.745Z,46.80
2022-10-31T08:50:31.086Z,43.80
2022-10-31T08:53:05.928Z,44.95
2022-10-31T08:55:35.311Z,42.00
2022-10-31T08:58:03.338Z,48.03
2022-10-31T09:00:30.140Z,48.65
2022-10-31T09:03:02.482Z,37.92
2022-10-31T09:05:29.170Z,46.97
2022-10-31T09:08:00.504Z,44.22
2022-10-31T09:13:16.505Z,44.63
2022-10-31T09:15:44.928Z,43.13
2022-10-31T09:18:12.515Z,46.30
2022-10-31T09:20:40.414Z,46.60
2022-10-31T09:23:12.270Z,45.45
2022-10-31T09:25:39.425Z,37.70
2022-10-31T09:28:07.882Z,39.50
2022-10-31T09:30:36.171Z,41.22
2022-10-31T09:33:05.450Z,42.38
2022-10-31T09:35:32.455Z,40.33
2022-10-31T09:38:01.115Z,43.00
2022-10-31T09:40:49.859Z,32.72
2022-10-31T09:43:23.074Z,47.38
2022-10-31T09:46:02.952Z,39.63
2022-10-31T09:48:48.204Z,39.28
2022-10-31T09:51:23.371Z,45.22
2022-10-31T09:53:56.457Z,45.55
2022-10-31T09:56:24.503Z,41.70
2022-10-31T09:59:01.475Z,34.05
2022-10-31T10:01:46.025Z,39.55
2022-10-31T10:04:47.770Z,36.92
2022-10-31T10:07:46.546Z,41.22
2022-10-31T10:10:23.269Z,39.83
2022-10-31T10:13:08.095Z,33.90
2022-10-31T10:16:24.296Z,31.67
2022-10-31T10:19:09.010Z,43.00
2022-10-31T10:22:05.413Z,49.85
2022-10-31T10:24:46.752Z,40.53
2022-10-31T10:27:34.949Z,35.95
2022-10-31T10:30:16.646Z,37.08
2022-10-31T10:35:22.952Z,36.20
2022-10-31T10:37:53.945Z,40.05
2022-10-31T10:40:29.221Z,29.52
2022-10-31T10:43:21.996Z,38.00
2022-10-31T10:46:19.059Z,46.85
2022-10-31T10:48:53.759Z,46.50
2022-10-31T10:51:54.670Z,39.80
2022-10-31T10:54:47.822Z,33.13
2022-10-31T10:57:32.457Z,44.30
2022-10-31T11:00:02.443Z,40.33
2022-10-31T11:02:33.519Z,48.58
2022-10-31T11:05:02.549Z,50.53
2022-10-31T11:07:39.810Z,39.63
2022-10-31T11:10:14.154Z,39.33
2022-10-31T11:12:41.373Z,38.25
2022-10-31T11:15:23.986Z,46.17
2022-10-31T11:17:53.677Z,36.05
2022-10-31T11:20:20.123Z,53.20
2022-10-31T11:22:48.769Z,40.63
2022-10-31T11:25:22.426Z,39.47
2022-10-31T11:28:19.697Z,33.88
2022-10-31T11:30:53.421Z,44.78
2022-10-31T11:33:27.408Z,33.60
2022-10-31T11:35:57.950Z,39.33
2022-10-31T11:38:32.837Z,40.30
2022-10-31T11:41:14.525Z,42.35
2022-10-31T11:43:50.553Z,34.40
2022-10-31T11:46:22.443Z,27.90
2022-10-31T11:48:51.643Z,31.17
2022-10-31T11:51:33.798Z,34.20
2022-10-31T11:54:03.538Z,33.10
2022-10-31T11:56:43.224Z,33.97
2022-10-31T11:59:28.100Z,30.42
2022-10-31T12:01:56.608Z,28.58
2022-10-31T12:05:09.537Z,40.72
2022-10-31T12:07:36.194Z,38.42
2022-10-31T12:10:05.919Z,34.85
2022-10-31T12:12:35.454Z,31.95
2022-10-31T12:15:04.988Z,32.20
2022-10-31T12:18:09.575Z,32.80
2022-10-31T12:20:57.767Z,33.25
2022-10-31T12:23:41.516Z,27.25
2022-10-31T12:26:48.475Z,28.23
2022-10-31T12:29:26.394Z,28.02
2022-10-31T12:32:17.770Z,31.38
2022-10-31T12:35:17.938Z,41.22
2022-10-31T12:38:09.310Z,41.45
2022-10-31T12:40:35.781Z,31.52
2022-10-31T12:43:02.670Z,34.13
2022-10-31T12:45:45.999Z,40.05
2022-10-31T12:48:18.112Z,30.85
2022-10-31T12:51:07.345Z,33.03
2022-10-31T12:53:42.836Z,40.30
2022-10-31T12:56:20.250Z,33.25
2022-10-31T12:58:54.836Z,28.42
2022-10-31T13:01:30.378Z,42.75
2022-10-31T13:04:04.283Z,37.13
2022-10-31T13:06:45.000Z,48.45
2022-10-31T13:09:18.145Z,38.85
2022-10-31T13:11:59.361Z,42.70
2022-10-31T13:14:36.562Z,48.55
2022-10-31T13:17:04.955Z,44.13
2022-10-31T13:19:34.327Z,51.08
2022-10-31T13:22:23.814Z,49.67
2022-10-31T13:25:18.164Z,51.00
2022-10-31T13:27:59.646Z,40.60
2022-10-31T13:30:30.461Z,39.03
2022-10-31T13:33:06.163Z,36.78
2022-10-31T13:35:38.970Z,42.75
2022-10-31T13:38:05.324Z,48.65
2022-10-31T13:40:40.773Z,51.53
2022-10-31T13:43:30.873Z,54.70
2022-10-31T13:45:57.428Z,41.92
2022-10-31T13:48:26.527Z,33.88
2022-10-31T13:51:02.973Z,51.78
2022-10-31T13:53:52.363Z,54.75
2022-10-31T13:56:23.324Z,49.78
2022-10-31T13:58:58.869Z,44.03
2022-10-31T14:01:25.820Z,47.63
2022-10-31T14:04:12.469Z,40.85
2022-10-31T14:07:09.216Z,50.97
2022-10-31T14:10:04.619Z,42.92
2022-10-31T14:12:38.614Z,48.92
2022-10-31T14:15:21.523Z,55.88
2022-10-31T14:17:50.568Z,48.40
2022-10-31T14:20:16.949Z,49.42
2022-10-31T14:22:44.792Z,51.78
2022-10-31T14:25:37.786Z,58.40
2022-10-31T14:28:21.396Z,54.67
2022-10-31T14:30:55.947Z,54.95
2022-10-31T14:33:25.094Z,66.35
2022-10-31T14:36:02.472Z,68.00
2022-10-31T14:38:37.252Z,53.40
2022-10-31T14:41:54.118Z,69.43
2022-10-31T14:45:01.157Z,60.72
2022-10-31T14:47:48.390Z,60.35
2022-10-31T14:50:26.737Z,63.25
2022-10-31T14:52:57.339Z,73.40
2022-10-31T14:55:25.628Z,71.00
2022-10-31T14:57:58.496Z,65.95
2022-10-31T15:00:28.517Z,65.95
2022-10-31T15:03:05.229Z,82.10
2022-10-31T15:05:33.801Z,83.88
2022-10-31T15:08:00.339Z,73.40
2022-10-31T15:10:38.013Z,68.10
2022-10-31T15:13:30.759Z,80.28
2022-10-31T15:15:57.316Z,73.95
2022-10-31T15:18:28.847Z,80.70
2022-10-31T15:20:57.422Z,79.85
2022-10-31T15:23:29.999Z,71.28
2022-10-31T15:26:05.848Z,82.70
2022-10-31T15:28:33.017Z,80.78
2022-10-31T15:31:01.791Z,82.45
2022-10-31T15:33:37.520Z,90.95
2022-10-31T15:36:05.688Z,91.88
2022-10-31T15:38:32.704Z,89.60
2022-10-31T15:41:20.977Z,91.47
2022-10-31T15:43:48.834Z,89.88
2022-10-31T15:46:15.518Z,90.60
2022-10-31T15:48:46.700Z,93.03
2022-10-31T15:51:13.661Z,102.30
2022-10-31T15:53:49.316Z,92.95
2022-10-31T15:56:32.950Z,90.43
2022-10-31T15:59:01.165Z,99.90
2022-10-31T16:01:33.430Z,98.95
2022-10-31T16:04:04.270Z,95.05
2022-10-31T16:06:32.645Z,97.72
2022-10-31T16:08:59.217Z,93.15
2022-10-31T16:11:38.946Z,110.57
2022-10-31T16:14:23.243Z,115.43
2022-10-31T16:16:58.620Z,109.15
2022-10-31T16:19:37.322Z,98.93
2022-10-31T16:22:07.900Z,100.15
2022-10-31T16:24:38.807Z,103.40
2022-10-31T16:27:16.299Z,108.68
2022-10-31T16:29:47.710Z,111.57
2022-10-31T16:32:27.358Z,118.95
2022-10-31T16:35:08.721Z,126.38
2022-10-31T16:37:37.936Z,125.80
2022-10-31T16:40:05.020Z,134.48
2022-10-31T16:42:31.519Z,136.68
2022-10-31T16:44:58.116Z,130.98
2022-10-31T16:47:27.569Z,123.82
2022-10-31T16:49:55.285Z,132.15
2022-10-31T16:52:21.881Z,128.48
2022-10-31T16:54:48.481Z,123.00
2022-10-31T16:57:19.263Z,121.25
2022-10-31T16:59:49.267Z,120.93
2022-10-31T17:02:17.536Z,126.57
2022-10-31T17:04:44.436Z,124.00
2022-10-31T17:07:10.869Z,121.78
2022-10-31T17:09:37.335Z,132.32
2022-10-31T17:12:06.366Z,125.25
2022-10-31T17:14:34.649Z,122.60
2022-10-31T17:17:01.071Z,122.72
2022-10-31T17:19:27.475Z,130.77
2022-10-31T17:21:54.098Z,126.45
2022-10-31T17:24:20.718Z,118.25
2022-10-31T17:26:47.233Z,123.97
2022-10-31T17:29:13.889Z,109.80
2022-10-31T17:31:40.385Z,109.60
2022-10-31T17:34:08.769Z,107.68
2022-10-31T17:36:36.043Z,112.07
2022-10-31T17:39:05.361Z,113.88
2022-10-31T17:41:31.924Z,120.60
2022-10-31T17:43:59.338Z,116.75
2022-10-31T17:46:26.545Z,120.25
2022-10-31T17:48:52.981Z,124.38
2022-10-31T17:51:19.543Z,121.88
2022-10-31T17:53:46.056Z,128.77
2022-10-31T17:56:13.080Z,129.55
2022-10-31T17:58:39.501Z,125.68
2022-10-31T18:01:11.809Z,142.45
2022-10-31T18:03:39.095Z,130.52
2022-10-31T18:06:06.219Z,128.73
2022-10-31T18:08:35.191Z,136.48
2022-10-31T18:11:09.093Z,136.95
2022-10-31T18:13:36.666Z,129.50
2022-10-31T18:16:10.701Z,128.00
2022-10-31T18:18:37.118Z,122.20
2022-10-31T18:21:04.047Z,127.72
2022-10-31T18:23:30.549Z,121.05
2022-10-31T18:25:57.159Z,133.23
2022-10-31T18:28:23.576Z,123.03
2022-10-31T18:30:50.024Z,128.50
2022-10-31T18:33:16.816Z,129.73
2022-10-31T18:35:43.194Z,121.85
2022-10-31T18:38:10.128Z,126.70
2022-10-31T18:40:36.844Z,128.68
2022-10-31T18:43:03.923Z,139.02
2022-10-31T18:45:45.413Z,126.72
2022-10-31T18:48:14.381Z,130.68
2022-10-31T18:50:40.918Z,126.43
2022-10-31T18:53:07.474Z,124.07
2022-10-31T18:55:33.916Z,131.60
2022-10-31T18:58:00.697Z,130.80
2022-10-31T19:00:27.263Z,128.82
2022-10-31T19:02:56.511Z,129.57
2022-10-31T19:05:23.245Z,134.30
2022-10-31T19:07:50.610Z,136.20
2022-10-31T19:10:17.119Z,129.00
2022-10-31T19:12:43.599Z,129.88
2022-10-31T19:15:10.412Z,140.82
2022-10-31T19:17:36.837Z,132.45
2022-10-31T19:20:03.632Z,130.73
2022-10-31T19:22:31.294Z,125.75
2022-10-31T19:24:57.672Z,121.93
2022-10-31T19:27:26.403Z,136.60
2022-10-31T19:29:52.812Z,131.65
2022-10-31T19:32:19.226Z,123.13
2022-10-31T19:34:45.677Z,127.90
2022-10-31T19:37:12.159Z,127.07
2022-10-31T19:39:43.673Z,124.70
2022-10-31T19:42:11.121Z,115.55
2022-10-31T19:44:37.573Z,132.18
2022-10-31T19:47:04.011Z,108.15
2022-10-31T19:49:30.487Z,124.22
2022-10-31T19:51:57.054Z,112.70
2022-10-31T19:54:23.989Z,109.80
2022-10-31T19:56:50.500Z,115.25
2022-10-31T19:59:16.939Z,114.03
2022-10-31T20:01:43.424Z,104.90
2022-10-31T20:04:10.057Z,106.78
2022-10-31T20:06:39.474Z,101.60
2022-10-31T20:09:13.470Z,91.35
2022-10-31T20:11:41.907Z,105.47
2022-10-31T20:14:10.184Z,103.07
2022-10-31T20:16:36.791Z,105.43
2022-10-31T20:19:03.484Z,105.40
2022-10-31T20:21:32.041Z,95.43
2022-10-31T20:24:00.956Z,98.18
2022-10-31T20:26:29.057Z,99.15
2022-10-31T20:28:56.857Z,93.13
2022-10-31T20:31:26.231Z,95.40
2022-10-31T20:33:53.561Z,93.70
2022-10-31T20:36:23.437Z,96.72
2022-10-31T20:38:51.584Z,96.38
2022-10-31T20:41:18.351Z,100.50
2022-10-31T20:43:45.347Z,91.40
2022-10-31T20:46:17.562Z,89.13
2022-10-31T20:48:44.709Z,106.90
2022-10-31T20:51:21.338Z,94.85
2022-10-31T20:53:51.910Z,97.65
2022-10-31T20:56:21.316Z,102.63
2022-10-31T20:58:48.318Z,90.18
2022-10-31T21:01:19.135Z,102.60
2022-10-31T21:03:46.195Z,91.40
2022-10-31T21:06:13.151Z,101.68
2022-10-31T21:08:40.401Z,97.72
2022-10-31T21:11:12.842Z,96.65
2022-10-31T21:13:41.265Z,98.45
2022-10-31T21:16:13.236Z,103.28
2022-10-31T21:18:41.244Z,109.85
2022-10-31T21:21:30.784Z,99.90
2022-10-31T21:24:02.060Z,93.87
2022-10-31T21:26:36.111Z,98.55
2022-10-31T21:29:04.541Z,94.80
2022-10-31T21:31:32.450Z,111.75
2022-10-31T21:33:58.838Z,106.05
2022-10-31T21:36:26.187Z,100.55
2022-10-31T21:38:54.061Z,101.28
2022-10-31T21:41:20.674Z,99.47
2022-10-31T21:43:49.054Z,99.13
2022-10-31T21:46:17.932Z,91.00
2022-10-31T21:48:45.082Z,100.13
2022-10-31T21:51:20.407Z,88.85
2022-10-31T21:54:05.701Z,88.85
2022-10-31T21:56:32.597Z,101.57
2022-10-31T21:58:59.832Z,95.68
2022-10-31T22:01:28.384Z,90.43
2022-10-31T22:03:55.737Z,95.07
2022-10-31T22:06:22.480Z,90.80
2022-10-31T22:08:49.071Z,94.78
2022-10-31T22:11:17.606Z,88.78
2022-10-31T22:13:46.223Z,94.97
2022-10-31T22:16:15.472Z,89.03
2022-10-31T22:18:43.070Z,85.25
2022-10-31T22:21:15.327Z,98.65
2022-10-31T22:23:42.658Z,92.32
2022-10-31T22:26:14.052Z,84.65
2022-10-31T22:28:42.627Z,81.50
2022-10-31T22:33:39.796Z,87.78
2022-10-31T22:36:09.053Z,79.57
2022-10-31T22:38:40.499Z,89.93
2022-10-31T22:41:08.958Z,90.32
2022-10-31T22:43:35.806Z,88.05
2022-10-31T22:46:06.079Z,89.90
2022-10-31T22:48:39.707Z,89.10
2022-10-31T22:51:11.699Z,84.90
2022-10-31T22:53:39.169Z,81.55
2022-10-31T22:56:07.978Z,90.68
2022-10-31T22:58:35.406Z,89.18
2022-10-31T23:01:10.361Z,85.63
2022-10-31T23:03:37.029Z,90.75
2022-10-31T23:06:04.947Z,86.20
2022-10-31T23:08:33.896Z,85.65
2022-10-31T23:11:00.387Z,92.93
2022-10-31T23:13:45.313Z,96.10
2022-10-31T23:16:13.132Z,87.80
2022-10-31T23:18:54.732Z,91.30
2022-10-31T23:21:44.034Z,90.70
2022-10-31T23:24:11.792Z,85.72
2022-10-31T23:26:58.379Z,98.20
2022-10-31T23:29:24.786Z,91.05
2022-10-31T23:31:54.399Z,90.18
2022-10-31T23:34:22.535Z,89.75
2022-10-31T23:36:49.199Z,88.68
2022-10-31T23:39:17.092Z,89.05
2022-10-31T23:41:44.583Z,84.03
2022-10-31T23:44:11.040Z,104.80
2022-10-31T23:46:37.457Z,93.18
2022-10-31T23:49:03.899Z,89.75
2022-10-31T23:51:30.346Z,84.53
2022-10-31T23:53:56.730Z,85.68
2022-10-31T23:56:23.195Z,91.70
2022-10-31T23:58:49.593Z,88.03
